Terminal Aerodrome Forecast
Issued by NWS Upton, NY

Home | Current Version | Previous Version | Text Only | Print | Product List | Glossary On
Versions: 1 2 3 4 5 6 7 8 9 10 11 12 13 14 15 16 17 18 19 20 21 22 23 24 25 26 27 28 29 30 31 32 33
000
FTUS41 KOKX 062343
TAFBDR
TAF
KBDR 062343Z 0700/0724 09012KT 3SM -RA BR OVC008
     FM070200 08008KT 2SM -DZ BR OVC004
     FM071500 07007KT 5SM BR OVC012
     FM071800 13005KT P6SM BKN015
     FM072100 18006KT P6SM BKN020=

USA.gov is the U.S. government's official web portal to all federal, state and local government web resources and services.